createdAt,value
2022-12-25T00:01:25.755Z,99.90
2022-12-25T00:03:52.803Z,99.90
2022-12-25T00:06:19.717Z,99.90
2022-12-25T00:08:46.437Z,99.90
2022-12-25T00:11:14.253Z,99.90
2022-12-25T00:13:41.074Z,99.90
2022-12-25T00:16:08.398Z,99.90
2022-12-25T00:18:35.179Z,99.90
2022-12-25T00:21:03.363Z,99.90
2022-12-25T00:23:30.174Z,99.90
2022-12-25T00:25:56.856Z,99.90
2022-12-25T00:28:23.741Z,99.90
2022-12-25T00:30:50.900Z,99.90
2022-12-25T00:33:17.760Z,99.90
2022-12-25T00:35:44.453Z,99.90
2022-12-25T00:38:11.237Z,99.90
2022-12-25T00:40:44.364Z,99.90
2022-12-25T00:43:11.155Z,99.90
2022-12-25T00:45:37.981Z,99.90
2022-12-25T00:48:04.782Z,99.90
2022-12-25T00:50:31.553Z,99.90
2022-12-25T00:52:58.470Z,99.90
2022-12-25T00:55:25.180Z,99.90
2022-12-25T00:57:51.887Z,99.90
2022-12-25T01:00:18.885Z,99.90
2022-12-25T01:02:45.726Z,99.90
2022-12-25T01:05:12.706Z,99.90
2022-12-25T01:07:39.443Z,99.90
2022-12-25T01:10:24.804Z,99.90
2022-12-25T01:12:51.721Z,99.90
2022-12-25T01:15:18.709Z,99.90
2022-12-25T01:17:45.499Z,99.90
2022-12-25T01:20:12.771Z,99.90
2022-12-25T01:22:39.632Z,99.90
2022-12-25T01:25:06.546Z,99.90
2022-12-25T01:27:33.326Z,99.90
2022-12-25T01:30:00.165Z,99.90
2022-12-25T01:32:26.868Z,99.90
2022-12-25T01:34:56.181Z,99.90
2022-12-25T01:37:24.165Z,99.90
2022-12-25T01:39:50.997Z,99.90
2022-12-25T01:42:18.026Z,99.90
2022-12-25T01:44:47.509Z,99.90
2022-12-25T01:47:14.229Z,99.90
2022-12-25T01:49:41.225Z,99.90
2022-12-25T01:52:10.758Z,99.90
2022-12-25T01:54:44.827Z,99.90
2022-12-25T01:57:13.014Z,99.90
2022-12-25T01:59:39.701Z,99.90
2022-12-25T02:02:06.424Z,99.90
2022-12-25T02:04:39.995Z,99.90
2022-12-25T02:07:10.625Z,99.90
2022-12-25T02:09:37.403Z,99.90
2022-12-25T02:12:04.447Z,99.90
2022-12-25T02:14:31.548Z,99.90
2022-12-25T02:17:20.086Z,99.90
2022-12-25T02:20:06.068Z,99.90
2022-12-25T02:22:32.766Z,99.90
2022-12-25T02:25:13.432Z,99.90
2022-12-25T02:27:52.460Z,99.90
2022-12-25T02:30:19.304Z,99.90
2022-12-25T02:32:49.056Z,99.90
2022-12-25T02:35:18.068Z,99.90
2022-12-25T02:38:01.217Z,99.90
2022-12-25T02:40:29.017Z,99.90
2022-12-25T02:43:17.905Z,99.90
2022-12-25T02:46:03.403Z,99.90
2022-12-25T02:48:49.581Z,99.90
2022-12-25T02:51:34.843Z,99.90
2022-12-25T02:54:20.730Z,99.90
2022-12-25T02:57:06.106Z,99.90
2022-12-25T02:59:52.091Z,99.90
2022-12-25T03:02:37.305Z,99.90
2022-12-25T03:05:23.543Z,99.90
2022-12-25T03:07:50.274Z,99.90
2022-12-25T03:10:35.788Z,99.90
2022-12-25T03:13:13.048Z,99.90
2022-12-25T03:15:58.612Z,99.90
2022-12-25T03:18:26.562Z,99.90
2022-12-25T03:21:12.082Z,99.90
2022-12-25T03:23:57.995Z,99.90
2022-12-25T03:26:43.929Z,99.90
2022-12-25T03:29:10.841Z,99.90
2022-12-25T03:31:43.891Z,99.90
2022-12-25T03:34:29.270Z,99.90
2022-12-25T03:37:14.997Z,99.90
2022-12-25T03:39:53.941Z,99.90
2022-12-25T03:42:36.742Z,99.90
2022-12-25T03:45:24.218Z,99.90
2022-12-25T03:47:53.903Z,99.90
2022-12-25T03:50:52.448Z,99.90
2022-12-25T03:53:40.595Z,99.90
2022-12-25T03:56:25.902Z,99.90
2022-12-25T03:59:11.465Z,99.90
2022-12-25T04:01:56.887Z,99.90
2022-12-25T04:04:42.277Z,99.90
2022-12-25T04:07:27.375Z,99.90
2022-12-25T04:10:12.632Z,99.90
2022-12-25T04:12:57.855Z,99.90
2022-12-25T04:15:42.987Z,99.90
2022-12-25T04:18:28.467Z,99.90
2022-12-25T04:21:13.788Z,99.90
2022-12-25T04:23:58.830Z,99.90
2022-12-25T04:26:44.062Z,99.90
2022-12-25T04:29:29.121Z,99.90
2022-12-25T04:32:14.301Z,99.90
2022-12-25T04:34:59.366Z,99.90
2022-12-25T04:37:26.129Z,99.90
2022-12-25T04:39:52.846Z,99.90
2022-12-25T04:42:19.600Z,99.90
2022-12-25T04:44:46.327Z,99.90
2022-12-25T04:47:13.138Z,99.90
2022-12-25T04:49:39.828Z,99.90
2022-12-25T04:52:06.590Z,99.90
2022-12-25T04:54:33.273Z,99.90
2022-12-25T04:56:59.933Z,99.90
2022-12-25T04:59:26.653Z,99.90
2022-12-25T05:01:53.484Z,99.90
2022-12-25T05:04:20.177Z,99.90
2022-12-25T05:06:46.901Z,99.90
2022-12-25T05:09:13.588Z,99.90
2022-12-25T05:11:40.293Z,99.90
2022-12-25T05:14:06.989Z,99.90
2022-12-25T05:16:33.822Z,99.90
2022-12-25T05:19:00.565Z,99.90
2022-12-25T05:21:27.280Z,99.90
2022-12-25T05:23:53.911Z,99.90
2022-12-25T05:26:21.403Z,99.90
2022-12-25T05:28:48.132Z,99.90
2022-12-25T05:31:14.857Z,99.90
2022-12-25T05:33:41.545Z,99.90
2022-12-25T05:36:08.634Z,99.90
2022-12-25T05:38:35.317Z,99.90
2022-12-25T05:41:02.077Z,99.90
2022-12-25T05:43:28.806Z,99.90
2022-12-25T05:45:55.559Z,99.90
2022-12-25T05:48:22.309Z,99.90
2022-12-25T05:50:48.962Z,99.90
2022-12-25T05:53:15.778Z,99.90
2022-12-25T05:55:45.613Z,99.90
2022-12-25T05:58:12.445Z,99.90
2022-12-25T06:00:39.218Z,99.90
2022-12-25T06:03:05.977Z,99.90
2022-12-25T06:05:32.711Z,99.90
2022-12-25T06:07:59.419Z,99.90
2022-12-25T06:10:26.120Z,99.90
2022-12-25T06:12:52.810Z,99.90
2022-12-25T06:15:19.606Z,99.90
2022-12-25T06:17:46.288Z,99.90
2022-12-25T06:20:13.081Z,99.90
2022-12-25T06:22:39.800Z,99.90
2022-12-25T06:25:06.677Z,99.90
2022-12-25T06:27:33.381Z,99.90
2022-12-25T06:30:00.045Z,99.90
2022-12-25T06:32:26.697Z,99.90
2022-12-25T06:34:53.413Z,99.90
2022-12-25T06:37:20.074Z,99.90
2022-12-25T06:39:47.146Z,99.90
2022-12-25T06:42:13.904Z,99.90
2022-12-25T06:44:40.570Z,99.90
2022-12-25T06:47:07.275Z,99.90
2022-12-25T06:49:33.910Z,99.90
2022-12-25T06:52:00.667Z,99.90
2022-12-25T06:54:27.416Z,99.90
2022-12-25T06:56:54.098Z,99.90
2022-12-25T06:59:20.905Z,99.90
2022-12-25T07:01:55.380Z,99.90
2022-12-25T07:04:28.244Z,99.90
2022-12-25T07:06:54.976Z,99.90
2022-12-25T07:09:21.668Z,99.90
2022-12-25T07:11:48.412Z,99.90
2022-12-25T07:14:23.218Z,99.90
2022-12-25T07:16:50.910Z,99.90
2022-12-25T07:19:17.669Z,99.90
2022-12-25T07:21:44.364Z,99.90
2022-12-25T07:24:11.067Z,99.90
2022-12-25T07:26:37.739Z,99.90
2022-12-25T07:29:04.376Z,99.90
2022-12-25T07:31:31.210Z,99.90
2022-12-25T07:33:57.977Z,99.90
2022-12-25T07:36:24.677Z,99.90
2022-12-25T07:38:51.536Z,99.90
2022-12-25T07:41:18.232Z,99.90
2022-12-25T07:43:44.870Z,99.90
2022-12-25T07:46:11.617Z,99.90
2022-12-25T07:48:38.381Z,99.90
2022-12-25T07:51:06.206Z,99.90
2022-12-25T07:53:33.017Z,99.90
2022-12-25T07:56:00.240Z,99.90
2022-12-25T07:58:27.246Z,99.90
2022-12-25T08:00:54.212Z,99.90
2022-12-25T08:03:21.315Z,99.90
2022-12-25T08:05:48.365Z,99.90
2022-12-25T08:08:15.077Z,99.90
2022-12-25T08:10:45.685Z,99.90
2022-12-25T08:13:14.611Z,99.90
2022-12-25T08:15:41.795Z,99.90
2022-12-25T08:18:08.494Z,99.90
2022-12-25T08:20:35.280Z,99.90
2022-12-25T08:23:02.132Z,99.90
2022-12-25T08:25:28.846Z,99.90
2022-12-25T08:27:55.580Z,99.90
2022-12-25T08:30:22.339Z,99.70
2022-12-25T08:32:49.066Z,98.00
2022-12-25T08:35:15.761Z,98.00
2022-12-25T08:37:42.506Z,96.80
2022-12-25T08:40:09.483Z,92.80
2022-12-25T08:42:36.181Z,91.70
2022-12-25T08:45:02.904Z,92.00
2022-12-25T08:47:29.728Z,91.10
2022-12-25T08:49:56.414Z,91.00
2022-12-25T08:52:23.267Z,89.00
2022-12-25T08:54:49.906Z,87.80
2022-12-25T08:57:16.562Z,85.70
2022-12-25T08:59:43.217Z,84.80
2022-12-25T09:02:10.683Z,84.70
2022-12-25T09:04:37.512Z,86.70
2022-12-25T09:07:04.193Z,87.20
2022-12-25T09:09:31.503Z,88.80
2022-12-25T09:11:58.165Z,90.50
2022-12-25T09:14:24.864Z,92.50
2022-12-25T09:16:51.539Z,93.80
2022-12-25T09:19:18.375Z,96.70
2022-12-25T09:21:45.225Z,99.20
2022-12-25T09:24:11.932Z,99.90
2022-12-25T09:26:38.645Z,99.90
2022-12-25T09:29:05.380Z,99.90
2022-12-25T09:31:32.097Z,99.90
2022-12-25T09:33:58.827Z,99.90
2022-12-25T09:36:25.667Z,99.90
2022-12-25T09:38:52.751Z,99.90
2022-12-25T09:41:34.553Z,99.90
2022-12-25T09:44:06.150Z,99.90
2022-12-25T09:46:37.505Z,99.90
2022-12-25T09:49:12.109Z,99.90
2022-12-25T09:51:38.772Z,99.90
2022-12-25T09:54:17.096Z,99.90
2022-12-25T09:56:43.756Z,99.90
2022-12-25T09:59:17.085Z,99.90
2022-12-25T10:02:02.560Z,99.90
2022-12-25T10:04:29.348Z,99.90
2022-12-25T10:07:15.781Z,99.90
2022-12-25T10:10:02.097Z,99.90
2022-12-25T10:12:41.116Z,99.90
2022-12-25T10:15:14.513Z,99.90
2022-12-25T10:17:44.224Z,99.90
2022-12-25T10:20:10.909Z,99.90
2022-12-25T10:22:58.867Z,99.90
2022-12-25T10:25:25.585Z,99.90
2022-12-25T10:27:59.834Z,99.90
2022-12-25T10:30:27.178Z,99.90
2022-12-25T10:32:54.737Z,99.90
2022-12-25T10:35:21.948Z,99.90
2022-12-25T10:37:57.685Z,99.90
2022-12-25T10:40:27.833Z,99.90
2022-12-25T10:42:59.419Z,99.90
2022-12-25T10:45:26.124Z,99.90
2022-12-25T10:48:06.774Z,99.90
2022-12-25T10:50:34.278Z,99.90
2022-12-25T10:53:01.701Z,99.90
2022-12-25T10:55:29.350Z,99.90
2022-12-25T10:57:58.039Z,99.90
2022-12-25T11:00:28.510Z,99.90
2022-12-25T11:02:55.462Z,99.90
2022-12-25T11:05:29.264Z,99.90
2022-12-25T11:07:56.186Z,99.90
2022-12-25T11:10:33.001Z,99.90
2022-12-25T11:12:59.846Z,99.90
2022-12-25T11:15:37.045Z,99.90
2022-12-25T11:18:04.430Z,99.90
2022-12-25T11:20:31.177Z,99.90
2022-12-25T11:22:57.872Z,99.90
2022-12-25T11:25:25.419Z,99.90
2022-12-25T11:28:04.994Z,99.90
2022-12-25T11:30:32.736Z,99.90
2022-12-25T11:33:00.901Z,99.90
2022-12-25T11:35:28.292Z,99.90
2022-12-25T11:37:54.987Z,99.90
2022-12-25T11:40:21.674Z,99.90
2022-12-25T11:43:04.132Z,99.90
2022-12-25T11:45:38.192Z,99.90
2022-12-25T11:48:13.181Z,99.90
2022-12-25T11:51:06.210Z,99.90
2022-12-25T11:53:41.348Z,99.90
2022-12-25T11:56:09.284Z,99.90
2022-12-25T11:58:43.491Z,99.90
2022-12-25T12:01:29.161Z,99.90
2022-12-25T12:03:55.991Z,99.90
2022-12-25T12:06:25.794Z,99.90
2022-12-25T12:08:53.861Z,99.90
2022-12-25T12:11:22.057Z,99.90
2022-12-25T12:14:01.034Z,99.90
2022-12-25T12:16:27.811Z,99.90
2022-12-25T12:18:54.538Z,99.90
2022-12-25T12:21:25.305Z,99.90
2022-12-25T12:23:54.457Z,99.90
2022-12-25T12:26:24.765Z,99.90
2022-12-25T12:28:52.376Z,99.90
2022-12-25T12:31:19.291Z,99.90
2022-12-25T12:33:50.856Z,99.90
2022-12-25T12:36:25.002Z,99.90
2022-12-25T12:38:56.261Z,99.90
2022-12-25T12:41:22.956Z,99.90
2022-12-25T12:43:52.718Z,99.90
2022-12-25T12:46:26.109Z,99.90
2022-12-25T12:49:15.400Z,99.90
2022-12-25T12:51:42.119Z,99.90
2022-12-25T12:54:20.284Z,99.90
2022-12-25T12:57:02.172Z,99.90
2022-12-25T12:59:38.848Z,99.90
2022-12-25T13:02:12.731Z,99.90
2022-12-25T13:04:42.459Z,99.90
2022-12-25T13:07:11.682Z,99.90
2022-12-25T13:09:44.356Z,99.90
2022-12-25T13:12:11.820Z,99.90
2022-12-25T13:14:38.596Z,99.90
2022-12-25T13:17:06.778Z,99.90
2022-12-25T13:19:33.530Z,99.90
2022-12-25T13:22:01.259Z,99.90
2022-12-25T13:24:28.602Z,99.90
2022-12-25T13:26:55.345Z,99.90
2022-12-25T13:29:31.202Z,99.90
2022-12-25T13:31:58.247Z,99.90
2022-12-25T13:34:31.961Z,99.90
2022-12-25T13:36:59.538Z,99.90
2022-12-25T13:39:26.697Z,99.90
2022-12-25T13:42:05.648Z,99.90
2022-12-25T13:44:41.360Z,99.90
2022-12-25T13:47:23.480Z,99.90
2022-12-25T13:49:50.330Z,99.90
2022-12-25T13:52:18.488Z,99.90
2022-12-25T13:54:52.869Z,99.90
2022-12-25T13:57:19.637Z,99.90
2022-12-25T13:59:46.449Z,99.90
2022-12-25T14:02:20.273Z,99.90
2022-12-25T14:04:47.067Z,99.90
2022-12-25T14:07:16.085Z,99.90
2022-12-25T14:09:42.753Z,99.90
2022-12-25T14:12:14.173Z,99.90
2022-12-25T14:14:44.159Z,99.90
2022-12-25T14:17:10.849Z,99.90
2022-12-25T14:19:37.594Z,99.90
2022-12-25T14:22:11.371Z,99.90
2022-12-25T14:24:38.170Z,99.90
2022-12-25T14:27:05.967Z,99.90
2022-12-25T14:29:42.827Z,99.90
2022-12-25T14:32:16.648Z,99.90
2022-12-25T14:34:43.777Z,99.90
2022-12-25T14:37:13.271Z,99.90
2022-12-25T14:39:39.956Z,99.90
2022-12-25T14:42:20.623Z,99.90
2022-12-25T14:44:56.566Z,99.90
2022-12-25T14:47:23.789Z,99.90
2022-12-25T14:49:51.030Z,99.90
2022-12-25T14:52:28.252Z,99.90
2022-12-25T14:54:59.295Z,99.90
2022-12-25T14:57:27.301Z,99.90
2022-12-25T15:00:08.109Z,99.90
2022-12-25T15:02:40.278Z,99.90
2022-12-25T15:05:21.882Z,99.90
2022-12-25T15:07:57.480Z,99.90
2022-12-25T15:13:13.388Z,99.90
2022-12-25T15:15:41.517Z,99.90
2022-12-25T15:18:10.061Z,99.90
2022-12-25T15:20:36.758Z,99.90
2022-12-25T15:23:19.364Z,99.90
2022-12-25T15:25:47.613Z,99.90
2022-12-25T15:28:14.370Z,99.90
2022-12-25T15:30:41.107Z,99.90
2022-12-25T15:33:09.569Z,99.90
2022-12-25T15:35:38.905Z,99.90
2022-12-25T15:38:05.742Z,99.90
2022-12-25T15:40:32.520Z,99.90
2022-12-25T15:42:59.857Z,99.90
2022-12-25T15:45:27.530Z,99.90
2022-12-25T15:47:54.261Z,99.90
2022-12-25T15:50:21.094Z,99.90
2022-12-25T15:52:47.869Z,99.90
2022-12-25T15:55:14.668Z,99.90
2022-12-25T15:57:42.073Z,99.90
2022-12-25T16:00:11.482Z,99.90
2022-12-25T16:02:38.484Z,99.90
2022-12-25T16:05:10.323Z,99.90
2022-12-25T16:07:37.671Z,99.90
2022-12-25T16:10:05.482Z,99.90
2022-12-25T16:12:32.299Z,99.90
2022-12-25T16:14:58.993Z,99.90
2022-12-25T16:17:25.737Z,99.90
2022-12-25T16:19:52.437Z,99.90
2022-12-25T16:22:23.765Z,99.90
2022-12-25T16:24:50.473Z,99.90
2022-12-25T16:27:17.125Z,99.90
2022-12-25T16:29:43.858Z,99.90
2022-12-25T16:32:11.303Z,99.90
2022-12-25T16:34:38.113Z,99.90
2022-12-25T16:37:04.942Z,99.90
2022-12-25T16:39:31.913Z,99.90
2022-12-25T16:41:58.621Z,99.90
2022-12-25T16:44:25.357Z,99.90
2022-12-25T16:46:52.098Z,99.90
2022-12-25T16:49:18.835Z,99.90
2022-12-25T16:51:45.607Z,99.90
2022-12-25T16:54:12.296Z,99.90
2022-12-25T16:56:39.017Z,99.90
2022-12-25T16:59:05.747Z,99.90
2022-12-25T17:01:32.599Z,99.90
2022-12-25T17:04:01.555Z,99.90
2022-12-25T17:06:28.534Z,99.90
2022-12-25T17:08:56.395Z,99.90
2022-12-25T17:11:29.588Z,99.90
2022-12-25T17:13:56.939Z,99.90
2022-12-25T17:16:24.937Z,99.90
2022-12-25T17:18:55.275Z,99.90
2022-12-25T17:21:24.137Z,99.90
2022-12-25T17:23:50.854Z,99.90
2022-12-25T17:26:17.516Z,99.90
2022-12-25T17:28:44.284Z,99.90
2022-12-25T17:31:11.436Z,99.90
2022-12-25T17:33:38.678Z,99.90
2022-12-25T17:36:06.403Z,99.90
2022-12-25T17:38:33.318Z,99.90
2022-12-25T17:41:00.409Z,99.90
2022-12-25T17:43:27.221Z,99.90
2022-12-25T17:45:53.878Z,99.90
2022-12-25T17:48:20.629Z,99.90
2022-12-25T17:50:47.458Z,99.90
2022-12-25T17:53:14.196Z,99.90
2022-12-25T17:55:41.328Z,99.90
2022-12-25T17:58:08.528Z,99.90
2022-12-25T18:00:35.422Z,99.90
2022-12-25T18:03:10.591Z,99.90
2022-12-25T18:05:38.123Z,99.90
2022-12-25T18:08:05.392Z,99.90
2022-12-25T18:10:35.908Z,99.90
2022-12-25T18:13:02.599Z,99.90
2022-12-25T18:15:29.332Z,99.90
2022-12-25T18:17:56.283Z,99.90
2022-12-25T18:20:23.032Z,99.90
2022-12-25T18:22:49.713Z,99.90
2022-12-25T18:25:16.527Z,99.90
2022-12-25T18:27:43.238Z,99.90
2022-12-25T18:30:10.179Z,99.90
2022-12-25T18:32:36.838Z,99.90
2022-12-25T18:35:03.611Z,99.90
2022-12-25T18:37:35.909Z,99.90
2022-12-25T18:40:06.681Z,99.90
2022-12-25T18:42:39.293Z,99.90
2022-12-25T18:45:12.739Z,99.90
2022-12-25T18:47:39.469Z,99.90
2022-12-25T18:50:07.001Z,99.90
2022-12-25T18:52:47.853Z,99.90
2022-12-25T18:55:17.996Z,99.90
2022-12-25T18:57:44.795Z,99.90
2022-12-25T19:00:11.623Z,99.90
2022-12-25T19:02:38.463Z,99.90
2022-12-25T19:05:05.885Z,99.90
2022-12-25T19:07:32.615Z,99.90
2022-12-25T19:09:59.244Z,99.90
2022-12-25T19:12:25.933Z,99.90
2022-12-25T19:14:55.319Z,99.90
2022-12-25T19:17:26.587Z,99.90
2022-12-25T19:19:57.959Z,99.90
2022-12-25T19:22:24.660Z,99.90
2022-12-25T19:24:51.405Z,99.90
2022-12-25T19:27:18.139Z,99.90
2022-12-25T19:29:44.801Z,99.90
2022-12-25T19:32:11.616Z,99.90
2022-12-25T19:34:38.404Z,99.90
2022-12-25T19:37:05.160Z,99.90
2022-12-25T19:39:31.868Z,99.90
2022-12-25T19:41:58.616Z,99.90
2022-12-25T19:44:25.272Z,99.90
2022-12-25T19:46:51.998Z,99.90
2022-12-25T19:49:18.827Z,99.90
2022-12-25T19:51:45.921Z,99.90
2022-12-25T19:54:13.888Z,99.90
2022-12-25T19:56:42.923Z,99.90
2022-12-25T19:59:12.171Z,99.90
2022-12-25T20:01:39.447Z,99.90
2022-12-25T20:04:08.032Z,99.90
2022-12-25T20:06:34.943Z,99.90
2022-12-25T20:09:05.758Z,99.90
2022-12-25T20:11:32.673Z,99.90
2022-12-25T20:13:59.640Z,99.90
2022-12-25T20:16:26.446Z,99.90
2022-12-25T20:18:53.274Z,99.90
2022-12-25T20:21:20.631Z,99.90
2022-12-25T20:23:47.991Z,99.90
2022-12-25T20:26:14.821Z,99.90
2022-12-25T20:28:43.898Z,99.90
2022-12-25T20:31:13.192Z,99.90
2022-12-25T20:33:39.907Z,99.90
2022-12-25T20:36:06.738Z,99.90
2022-12-25T20:38:33.805Z,99.90
2022-12-25T20:41:26.320Z,99.90
2022-12-25T20:43:47.844Z,99.90
2022-12-25T20:46:14.577Z,99.90
2022-12-25T20:48:41.280Z,99.90
2022-12-25T20:51:09.195Z,99.90
2022-12-25T20:53:36.148Z,99.90
2022-12-25T20:56:03.008Z,99.90
2022-12-25T20:58:29.777Z,99.90
2022-12-25T21:00:56.499Z,99.90
2022-12-25T21:03:23.370Z,99.90
2022-12-25T21:05:51.118Z,99.90
2022-12-25T21:08:18.245Z,99.90
2022-12-25T21:10:46.217Z,99.90
2022-12-25T21:13:12.962Z,99.90
2022-12-25T21:15:42.887Z,99.90
2022-12-25T21:18:09.571Z,99.90
2022-12-25T21:20:36.287Z,99.90
2022-12-25T21:23:02.953Z,99.90
2022-12-25T21:25:29.726Z,99.90
2022-12-25T21:27:56.421Z,99.90
2022-12-25T21:30:23.177Z,99.90
2022-12-25T21:33:08.214Z,99.90
2022-12-25T21:35:38.006Z,99.90
2022-12-25T21:38:04.642Z,99.90
2022-12-25T21:40:33.087Z,99.90
2022-12-25T21:43:01.120Z,99.90
2022-12-25T21:45:28.316Z,99.90
2022-12-25T21:48:01.288Z,99.90
2022-12-25T21:50:48.175Z,99.90
2022-12-25T21:53:18.207Z,99.90
2022-12-25T21:55:58.130Z,99.90
2022-12-25T21:58:24.944Z,99.90
2022-12-25T22:00:51.923Z,99.90
2022-12-25T22:03:18.752Z,99.90
2022-12-25T22:06:04.252Z,99.90
2022-12-25T22:08:31.487Z,99.90
2022-12-25T22:10:58.232Z,99.90
2022-12-25T22:13:43.389Z,99.90
2022-12-25T22:16:28.651Z,99.90
2022-12-25T22:19:13.975Z,99.90
2022-12-25T22:21:40.691Z,99.90
2022-12-25T22:24:08.238Z,99.90
2022-12-25T22:26:35.193Z,99.90
2022-12-25T22:29:01.949Z,99.90
2022-12-25T22:31:28.866Z,99.90
2022-12-25T22:33:55.850Z,99.90
2022-12-25T22:36:22.585Z,99.90
2022-12-25T22:38:49.280Z,99.90
2022-12-25T22:41:16.020Z,99.90
2022-12-25T22:44:15.815Z,99.90
2022-12-25T22:46:29.442Z,99.90
2022-12-25T22:48:56.631Z,99.90
2022-12-25T22:51:23.331Z,99.90
2022-12-25T22:53:50.063Z,99.90
2022-12-25T22:56:16.781Z,99.90
2022-12-25T22:58:43.476Z,99.90
2022-12-25T23:01:10.354Z,99.90
2022-12-25T23:03:37.184Z,99.90
2022-12-25T23:06:04.056Z,99.90
2022-12-25T23:08:30.729Z,99.90
2022-12-25T23:11:01.390Z,99.90
2022-12-25T23:13:46.718Z,99.90
2022-12-25T23:16:14.100Z,99.90
2022-12-25T23:19:10.161Z,99.90
2022-12-25T23:21:55.190Z,99.90
2022-12-25T23:24:40.650Z,99.90
2022-12-25T23:27:07.376Z,99.90
2022-12-25T23:29:37.127Z,99.90
2022-12-25T23:32:07.781Z,99.90
2022-12-25T23:34:34.957Z,99.90
2022-12-25T23:37:01.638Z,99.90
2022-12-25T23:39:28.575Z,99.90
2022-12-25T23:41:55.340Z,99.90
2022-12-25T23:44:22.086Z,99.90
2022-12-25T23:46:52.947Z,99.90
2022-12-25T23:49:20.787Z,99.90
2022-12-25T23:51:47.587Z,99.90
2022-12-25T23:54:18.059Z,99.90
2022-12-25T23:56:44.786Z,99.90
2022-12-25T23:59:11.609Z,99.90
